sensor_id;sensor_type;location;lat;lon;timestamp;P1;durP1;ratioP1;P2;durP2;ratioP2
75655;SDS011;64252;51.094;13.714;2023-10-08T00:02:16;5.40;;;2.67;;
75655;SDS011;64252;51.094;13.714;2023-10-08T00:04:48;7.15;;;2.67;;
75655;SDS011;64252;51.094;13.714;2023-10-08T00:07:16;7.47;;;2.47;;
75655;SDS011;64252;51.094;13.714;2023-10-08T00:09:49;7.50;;;2.80;;
75655;SDS011;64252;51.094;13.714;2023-10-08T00:12:19;6.82;;;2.67;;
75655;SDS011;64252;51.094;13.714;2023-10-08T00:14:45;5.88;;;2.50;;
75655;SDS011;64252;51.094;13.714;2023-10-08T00:17:14;8.50;;;2.40;;
75655;SDS011;64252;51.094;13.714;2023-10-08T00:19:42;9.80;;;2.85;;
75655;SDS011;64252;51.094;13.714;2023-10-08T00:22:09;8.68;;;2.42;;
75655;SDS011;64252;51.094;13.714;2023-10-08T00:24:39;9.48;;;2.53;;
75655;SDS011;64252;51.094;13.714;2023-10-08T00:27:09;6.68;;;2.55;;
75655;SDS011;64252;51.094;13.714;2023-10-08T00:29:35;5.68;;;2.42;;
75655;SDS011;64252;51.094;13.714;2023-10-08T00:32:05;7.75;;;2.65;;
75655;SDS011;64252;51.094;13.714;2023-10-08T00:34:37;9.43;;;2.65;;
75655;SDS011;64252;51.094;13.714;2023-10-08T00:37:09;8.45;;;3.00;;
75655;SDS011;64252;51.094;13.714;2023-10-08T00:39:36;7.47;;;2.83;;
75655;SDS011;64252;51.094;13.714;2023-10-08T00:42:05;6.22;;;2.67;;
75655;SDS011;64252;51.094;13.714;2023-10-08T00:44:32;7.28;;;2.75;;
75655;SDS011;64252;51.094;13.714;2023-10-08T00:47:03;13.90;;;3.10;;
75655;SDS011;64252;51.094;13.714;2023-10-08T00:49:30;8.38;;;2.75;;
75655;SDS011;64252;51.094;13.714;2023-10-08T00:52:06;7.55;;;2.63;;
75655;SDS011;64252;51.094;13.714;2023-10-08T00:54:37;9.23;;;3.25;;
75655;SDS011;64252;51.094;13.714;2023-10-08T00:57:17;8.32;;;2.90;;
75655;SDS011;64252;51.094;13.714;2023-10-08T00:59:47;8.90;;;2.78;;
75655;SDS011;64252;51.094;13.714;2023-10-08T01:02:25;6.53;;;3.10;;
75655;SDS011;64252;51.094;13.714;2023-10-08T01:07:19;7.97;;;3.10;;
75655;SDS011;64252;51.094;13.714;2023-10-08T01:09:47;7.55;;;2.78;;
75655;SDS011;64252;51.094;13.714;2023-10-08T01:12:17;8.40;;;3.08;;
75655;SDS011;64252;51.094;13.714;2023-10-08T01:14:48;7.43;;;3.22;;
75655;SDS011;64252;51.094;13.714;2023-10-08T01:17:14;9.23;;;3.13;;
75655;SDS011;64252;51.094;13.714;2023-10-08T01:19:44;8.02;;;3.63;;
75655;SDS011;64252;51.094;13.714;2023-10-08T01:22:19;8.63;;;3.85;;
75655;SDS011;64252;51.094;13.714;2023-10-08T01:24:47;9.82;;;4.15;;
75655;SDS011;64252;51.094;13.714;2023-10-08T01:27:14;10.73;;;4.95;;
75655;SDS011;64252;51.094;13.714;2023-10-08T01:29:47;10.45;;;4.93;;
75655;SDS011;64252;51.094;13.714;2023-10-08T01:32:15;11.77;;;5.88;;
75655;SDS011;64252;51.094;13.714;2023-10-08T01:34:46;10.73;;;5.88;;
75655;SDS011;64252;51.094;13.714;2023-10-08T01:37:15;11.88;;;6.47;;
75655;SDS011;64252;51.094;13.714;2023-10-08T01:39:43;11.02;;;6.60;;
75655;SDS011;64252;51.094;13.714;2023-10-08T01:42:12;11.25;;;4.68;;
75655;SDS011;64252;51.094;13.714;2023-10-08T01:44:46;8.10;;;2.83;;
75655;SDS011;64252;51.094;13.714;2023-10-08T01:47:13;3.58;;;1.75;;
75655;SDS011;64252;51.094;13.714;2023-10-08T01:49:41;3.55;;;1.10;;
75655;SDS011;64252;51.094;13.714;2023-10-08T01:52:09;4.55;;;1.17;;
75655;SDS011;64252;51.094;13.714;2023-10-08T01:54:50;3.08;;;1.20;;
75655;SDS011;64252;51.094;13.714;2023-10-08T01:57:19;2.00;;;0.40;;
75655;SDS011;64252;51.094;13.714;2023-10-08T01:59:44;1.75;;;0.30;;
75655;SDS011;64252;51.094;13.714;2023-10-08T02:02:10;0.98;;;0.30;;
75655;SDS011;64252;51.094;13.714;2023-10-08T02:04:40;1.10;;;0.30;;
75655;SDS011;64252;51.094;13.714;2023-10-08T02:07:06;0.50;;;0.20;;
75655;SDS011;64252;51.094;13.714;2023-10-08T02:09:40;0.80;;;0.20;;
75655;SDS011;64252;51.094;13.714;2023-10-08T02:12:06;0.10;;;0.10;;
75655;SDS011;64252;51.094;13.714;2023-10-08T02:14:32;0.40;;;0.10;;
75655;SDS011;64252;51.094;13.714;2023-10-08T02:17:01;0.10;;;0.00;;
75655;SDS011;64252;51.094;13.714;2023-10-08T02:19:31;0.35;;;0.10;;
75655;SDS011;64252;51.094;13.714;2023-10-08T02:21:57;0.08;;;0.00;;
75655;SDS011;64252;51.094;13.714;2023-10-08T02:24:23;0.10;;;0.10;;
75655;SDS011;64252;51.094;13.714;2023-10-08T02:26:53;0.00;;;0.00;;
75655;SDS011;64252;51.094;13.714;2023-10-08T02:29:24;0.95;;;0.10;;
75655;SDS011;64252;51.094;13.714;2023-10-08T02:31:51;0.32;;;0.10;;
75655;SDS011;64252;51.094;13.714;2023-10-08T02:34:19;0.40;;;0.10;;
75655;SDS011;64252;51.094;13.714;2023-10-08T02:36:45;0.10;;;0.00;;
75655;SDS011;64252;51.094;13.714;2023-10-08T02:39:12;0.10;;;0.10;;
75655;SDS011;64252;51.094;13.714;2023-10-08T02:41:51;0.05;;;0.03;;
75655;SDS011;64252;51.094;13.714;2023-10-08T02:44:18;0.38;;;0.17;;
75655;SDS011;64252;51.094;13.714;2023-10-08T02:46:46;0.10;;;0.10;;
75655;SDS011;64252;51.094;13.714;2023-10-08T02:49:17;0.38;;;0.20;;
75655;SDS011;64252;51.094;13.714;2023-10-08T02:51:51;0.30;;;0.10;;
75655;SDS011;64252;51.094;13.714;2023-10-08T02:54:19;0.47;;;0.13;;
75655;SDS011;64252;51.094;13.714;2023-10-08T02:56:49;1.63;;;0.20;;
75655;SDS011;64252;51.094;13.714;2023-10-08T02:59:20;0.30;;;0.13;;
75655;SDS011;64252;51.094;13.714;2023-10-08T03:01:48;0.22;;;0.10;;
75655;SDS011;64252;51.094;13.714;2023-10-08T03:04:21;0.20;;;0.13;;
75655;SDS011;64252;51.094;13.714;2023-10-08T03:06:51;0.60;;;0.30;;
75655;SDS011;64252;51.094;13.714;2023-10-08T03:09:18;0.32;;;0.10;;
75655;SDS011;64252;51.094;13.714;2023-10-08T03:11:50;1.38;;;0.10;;
75655;SDS011;64252;51.094;13.714;2023-10-08T03:14:16;0.22;;;0.10;;
75655;SDS011;64252;51.094;13.714;2023-10-08T03:16:53;0.28;;;0.10;;
75655;SDS011;64252;51.094;13.714;2023-10-08T03:19:29;0.10;;;0.00;;
75655;SDS011;64252;51.094;13.714;2023-10-08T03:21:55;0.40;;;0.10;;
75655;SDS011;64252;51.094;13.714;2023-10-08T03:24:21;0.35;;;0.00;;
75655;SDS011;64252;51.094;13.714;2023-10-08T03:27:00;0.10;;;0.00;;
75655;SDS011;64252;51.094;13.714;2023-10-08T03:29:35;0.20;;;0.00;;
75655;SDS011;64252;51.094;13.714;2023-10-08T03:32:11;0.32;;;0.10;;
75655;SDS011;64252;51.094;13.714;2023-10-08T03:34:45;2.33;;;0.40;;
75655;SDS011;64252;51.094;13.714;2023-10-08T03:37:19;1.08;;;0.22;;
75655;SDS011;64252;51.094;13.714;2023-10-08T03:39:46;0.85;;;0.28;;
75655;SDS011;64252;51.094;13.714;2023-10-08T03:42:20;1.23;;;0.32;;
75655;SDS011;64252;51.094;13.714;2023-10-08T03:44:48;0.90;;;0.22;;
75655;SDS011;64252;51.094;13.714;2023-10-08T03:47:20;1.98;;;0.30;;
75655;SDS011;64252;51.094;13.714;2023-10-08T03:49:54;3.33;;;0.40;;
75655;SDS011;64252;51.094;13.714;2023-10-08T03:52:20;3.00;;;0.60;;
75655;SDS011;64252;51.094;13.714;2023-10-08T03:54:48;3.63;;;0.50;;
75655;SDS011;64252;51.094;13.714;2023-10-08T03:57:28;6.43;;;0.80;;
75655;SDS011;64252;51.094;13.714;2023-10-08T04:00:06;7.13;;;1.10;;
75655;SDS011;64252;51.094;13.714;2023-10-08T04:02:37;8.00;;;1.25;;
75655;SDS011;64252;51.094;13.714;2023-10-08T04:05:11;4.78;;;0.98;;
75655;SDS011;64252;51.094;13.714;2023-10-08T04:07:45;6.00;;;1.70;;
75655;SDS011;64252;51.094;13.714;2023-10-08T04:10:36;4.90;;;1.20;;
75655;SDS011;64252;51.094;13.714;2023-10-08T04:13:08;3.75;;;0.80;;
75655;SDS011;64252;51.094;13.714;2023-10-08T04:15:35;5.38;;;0.70;;
75655;SDS011;64252;51.094;13.714;2023-10-08T04:18:09;6.10;;;1.20;;
75655;SDS011;64252;51.094;13.714;2023-10-08T04:20:35;5.40;;;1.00;;
75655;SDS011;64252;51.094;13.714;2023-10-08T04:23:06;6.65;;;1.10;;
75655;SDS011;64252;51.094;13.714;2023-10-08T04:25:43;5.13;;;0.93;;
75655;SDS011;64252;51.094;13.714;2023-10-08T04:28:09;4.00;;;1.00;;
75655;SDS011;64252;51.094;13.714;2023-10-08T04:30:39;4.53;;;1.10;;
75655;SDS011;64252;51.094;13.714;2023-10-08T04:33:07;4.40;;;0.93;;
75655;SDS011;64252;51.094;13.714;2023-10-08T04:35:36;11.32;;;4.50;;
75655;SDS011;64252;51.094;13.714;2023-10-08T04:38:22;5.95;;;1.20;;
75655;SDS011;64252;51.094;13.714;2023-10-08T04:40:51;6.15;;;1.00;;
75655;SDS011;64252;51.094;13.714;2023-10-08T04:43:18;4.40;;;0.90;;
75655;SDS011;64252;51.094;13.714;2023-10-08T04:45:53;3.72;;;1.02;;
75655;SDS011;64252;51.094;13.714;2023-10-08T04:48:23;3.15;;;0.90;;
75655;SDS011;64252;51.094;13.714;2023-10-08T04:50:50;6.38;;;1.15;;
75655;SDS011;64252;51.094;13.714;2023-10-08T04:53:30;3.95;;;0.90;;
75655;SDS011;64252;51.094;13.714;2023-10-08T04:56:02;7.63;;;1.08;;
75655;SDS011;64252;51.094;13.714;2023-10-08T04:58:45;5.13;;;1.30;;
75655;SDS011;64252;51.094;13.714;2023-10-08T05:01:15;2.67;;;0.73;;
75655;SDS011;64252;51.094;13.714;2023-10-08T05:03:55;4.30;;;0.88;;
75655;SDS011;64252;51.094;13.714;2023-10-08T05:06:23;3.70;;;0.75;;
75655;SDS011;64252;51.094;13.714;2023-10-08T05:09:12;5.13;;;1.00;;
75655;SDS011;64252;51.094;13.714;2023-10-08T05:11:45;2.83;;;0.60;;
75655;SDS011;64252;51.094;13.714;2023-10-08T05:14:22;3.58;;;0.98;;
75655;SDS011;64252;51.094;13.714;2023-10-08T05:16:58;3.47;;;0.85;;
75655;SDS011;64252;51.094;13.714;2023-10-08T05:19:50;2.50;;;0.80;;
75655;SDS011;64252;51.094;13.714;2023-10-08T05:22:41;5.22;;;0.90;;
75655;SDS011;64252;51.094;13.714;2023-10-08T05:25:10;1.73;;;0.68;;
75655;SDS011;64252;51.094;13.714;2023-10-08T05:27:51;2.80;;;0.80;;
75655;SDS011;64252;51.094;13.714;2023-10-08T05:30:19;3.22;;;0.82;;
75655;SDS011;64252;51.094;13.714;2023-10-08T05:33:04;5.05;;;0.70;;
75655;SDS011;64252;51.094;13.714;2023-10-08T05:35:43;3.63;;;0.70;;
75655;SDS011;64252;51.094;13.714;2023-10-08T05:38:10;2.25;;;0.75;;
75655;SDS011;64252;51.094;13.714;2023-10-08T05:40:42;3.10;;;0.70;;
75655;SDS011;64252;51.094;13.714;2023-10-08T05:43:27;2.45;;;0.55;;
75655;SDS011;64252;51.094;13.714;2023-10-08T05:46:02;2.60;;;0.70;;
75655;SDS011;64252;51.094;13.714;2023-10-08T05:48:48;3.17;;;0.80;;
75655;SDS011;64252;51.094;13.714;2023-10-08T05:51:41;1.90;;;0.43;;
75655;SDS011;64252;51.094;13.714;2023-10-08T05:56:52;3.75;;;0.80;;
75655;SDS011;64252;51.094;13.714;2023-10-08T05:59:40;5.10;;;0.85;;
75655;SDS011;64252;51.094;13.714;2023-10-08T06:02:29;3.85;;;1.30;;
75655;SDS011;64252;51.094;13.714;2023-10-08T06:05:03;2.53;;;0.73;;
75655;SDS011;64252;51.094;13.714;2023-10-08T06:07:39;3.88;;;0.90;;
75655;SDS011;64252;51.094;13.714;2023-10-08T06:10:32;4.88;;;0.80;;
75655;SDS011;64252;51.094;13.714;2023-10-08T06:12:59;3.55;;;0.90;;
75655;SDS011;64252;51.094;13.714;2023-10-08T06:15:45;3.95;;;1.20;;
75655;SDS011;64252;51.094;13.714;2023-10-08T06:18:25;2.83;;;0.63;;
75655;SDS011;64252;51.094;13.714;2023-10-08T06:20:52;3.53;;;0.85;;
75655;SDS011;64252;51.094;13.714;2023-10-08T06:23:23;2.67;;;0.77;;
75655;SDS011;64252;51.094;13.714;2023-10-08T06:25:50;3.78;;;0.88;;
75655;SDS011;64252;51.094;13.714;2023-10-08T06:28:22;2.45;;;0.75;;
75655;SDS011;64252;51.094;13.714;2023-10-08T06:30:51;2.67;;;0.80;;
75655;SDS011;64252;51.094;13.714;2023-10-08T06:33:22;2.10;;;0.63;;
75655;SDS011;64252;51.094;13.714;2023-10-08T06:35:51;4.00;;;0.88;;
75655;SDS011;64252;51.094;13.714;2023-10-08T06:38:42;2.85;;;0.68;;
75655;SDS011;64252;51.094;13.714;2023-10-08T06:41:10;3.78;;;0.90;;
75655;SDS011;64252;51.094;13.714;2023-10-08T06:43:42;3.63;;;0.73;;
75655;SDS011;64252;51.094;13.714;2023-10-08T06:46:16;2.40;;;0.60;;
75655;SDS011;64252;51.094;13.714;2023-10-08T06:48:47;2.50;;;0.73;;
75655;SDS011;64252;51.094;13.714;2023-10-08T06:51:14;3.67;;;0.73;;
75655;SDS011;64252;51.094;13.714;2023-10-08T06:53:45;3.42;;;1.02;;
75655;SDS011;64252;51.094;13.714;2023-10-08T06:56:13;2.38;;;0.80;;
75655;SDS011;64252;51.094;13.714;2023-10-08T06:58:43;3.47;;;0.80;;
75655;SDS011;64252;51.094;13.714;2023-10-08T07:01:18;4.65;;;0.95;;
75655;SDS011;64252;51.094;13.714;2023-10-08T07:03:49;3.63;;;1.00;;
75655;SDS011;64252;51.094;13.714;2023-10-08T07:06:22;5.90;;;1.55;;
75655;SDS011;64252;51.094;13.714;2023-10-08T07:08:51;6.00;;;1.50;;
75655;SDS011;64252;51.094;13.714;2023-10-08T07:11:20;4.50;;;1.50;;
75655;SDS011;64252;51.094;13.714;2023-10-08T07:13:47;4.32;;;1.70;;
75655;SDS011;64252;51.094;13.714;2023-10-08T07:16:13;3.55;;;1.23;;
75655;SDS011;64252;51.094;13.714;2023-10-08T07:18:43;4.25;;;1.40;;
75655;SDS011;64252;51.094;13.714;2023-10-08T07:21:16;2.72;;;1.05;;
75655;SDS011;64252;51.094;13.714;2023-10-08T07:23:42;3.05;;;0.90;;
75655;SDS011;64252;51.094;13.714;2023-10-08T07:29:02;2.88;;;0.98;;
75655;SDS011;64252;51.094;13.714;2023-10-08T07:31:37;4.07;;;1.00;;
75655;SDS011;64252;51.094;13.714;2023-10-08T07:34:06;2.63;;;0.70;;
75655;SDS011;64252;51.094;13.714;2023-10-08T07:36:47;2.05;;;0.70;;
75655;SDS011;64252;51.094;13.714;2023-10-08T07:39:17;2.60;;;0.82;;
75655;SDS011;64252;51.094;13.714;2023-10-08T07:42:07;2.90;;;0.80;;
75655;SDS011;64252;51.094;13.714;2023-10-08T07:44:33;4.07;;;1.17;;
75655;SDS011;64252;51.094;13.714;2023-10-08T07:47:04;3.05;;;0.90;;
75655;SDS011;64252;51.094;13.714;2023-10-08T07:49:35;3.20;;;1.00;;
75655;SDS011;64252;51.094;13.714;2023-10-08T07:52:01;4.50;;;1.30;;
75655;SDS011;64252;51.094;13.714;2023-10-08T07:54:27;4.40;;;1.67;;
75655;SDS011;64252;51.094;13.714;2023-10-08T07:57:00;7.00;;;2.15;;
75655;SDS011;64252;51.094;13.714;2023-10-08T07:59:37;5.50;;;2.38;;
75655;SDS011;64252;51.094;13.714;2023-10-08T08:02:05;4.85;;;2.35;;
75655;SDS011;64252;51.094;13.714;2023-10-08T08:04:41;3.08;;;1.08;;
75655;SDS011;64252;51.094;13.714;2023-10-08T08:07:11;3.60;;;1.25;;
75655;SDS011;64252;51.094;13.714;2023-10-08T08:09:43;3.22;;;1.08;;
75655;SDS011;64252;51.094;13.714;2023-10-08T08:12:19;3.60;;;1.13;;
75655;SDS011;64252;51.094;13.714;2023-10-08T08:14:46;3.33;;;0.90;;
75655;SDS011;64252;51.094;13.714;2023-10-08T08:17:13;6.07;;;1.40;;
75655;SDS011;64252;51.094;13.714;2023-10-08T08:19:43;3.22;;;1.00;;
75655;SDS011;64252;51.094;13.714;2023-10-08T08:22:12;4.65;;;1.40;;
75655;SDS011;64252;51.094;13.714;2023-10-08T08:24:49;4.10;;;1.50;;
75655;SDS011;64252;51.094;13.714;2023-10-08T08:27:21;3.47;;;1.50;;
75655;SDS011;64252;51.094;13.714;2023-10-08T08:29:50;5.05;;;1.80;;
75655;SDS011;64252;51.094;13.714;2023-10-08T08:32:19;5.03;;;2.25;;
75655;SDS011;64252;51.094;13.714;2023-10-08T08:34:47;4.68;;;1.73;;
75655;SDS011;64252;51.094;13.714;2023-10-08T08:37:19;4.30;;;1.60;;
75655;SDS011;64252;51.094;13.714;2023-10-08T08:39:50;4.55;;;1.90;;
75655;SDS011;64252;51.094;13.714;2023-10-08T08:42:17;4.82;;;2.30;;
75655;SDS011;64252;51.094;13.714;2023-10-08T08:44:47;5.47;;;2.75;;
75655;SDS011;64252;51.094;13.714;2023-10-08T08:47:16;5.10;;;2.55;;
75655;SDS011;64252;51.094;13.714;2023-10-08T08:49:43;5.80;;;2.00;;
75655;SDS011;64252;51.094;13.714;2023-10-08T08:54:39;5.45;;;1.75;;
75655;SDS011;64252;51.094;13.714;2023-10-08T08:57:07;4.13;;;1.67;;
75655;SDS011;64252;51.094;13.714;2023-10-08T08:59:51;4.10;;;1.65;;
75655;SDS011;64252;51.094;13.714;2023-10-08T09:02:19;4.40;;;1.40;;
75655;SDS011;64252;51.094;13.714;2023-10-08T09:04:44;6.85;;;1.92;;
75655;SDS011;64252;51.094;13.714;2023-10-08T09:07:12;5.63;;;2.08;;
75655;SDS011;64252;51.094;13.714;2023-10-08T09:09:38;6.10;;;1.80;;
75655;SDS011;64252;51.094;13.714;2023-10-08T09:12:04;4.03;;;1.55;;
75655;SDS011;64252;51.094;13.714;2023-10-08T09:14:33;4.05;;;1.20;;
75655;SDS011;64252;51.094;13.714;2023-10-08T09:17:02;5.63;;;1.35;;
75655;SDS011;64252;51.094;13.714;2023-10-08T09:19:29;5.82;;;1.30;;
75655;SDS011;64252;51.094;13.714;2023-10-08T09:22:01;4.75;;;1.30;;
75655;SDS011;64252;51.094;13.714;2023-10-08T09:24:35;3.33;;;1.23;;
75655;SDS011;64252;51.094;13.714;2023-10-08T09:27:11;3.60;;;1.30;;
75655;SDS011;64252;51.094;13.714;2023-10-08T09:29:41;3.90;;;1.25;;
75655;SDS011;64252;51.094;13.714;2023-10-08T09:32:10;5.38;;;1.40;;
75655;SDS011;64252;51.094;13.714;2023-10-08T09:34:38;5.22;;;1.10;;
75655;SDS011;64252;51.094;13.714;2023-10-08T09:37:04;4.60;;;1.23;;
75655;SDS011;64252;51.094;13.714;2023-10-08T09:39:30;5.15;;;1.60;;
75655;SDS011;64252;51.094;13.714;2023-10-08T09:44:25;6.70;;;1.30;;
75655;SDS011;64252;51.094;13.714;2023-10-08T09:46:52;6.20;;;1.58;;
75655;SDS011;64252;51.094;13.714;2023-10-08T09:49:31;3.90;;;1.48;;
75655;SDS011;64252;51.094;13.714;2023-10-08T09:52:02;4.80;;;1.40;;
75655;SDS011;64252;51.094;13.714;2023-10-08T09:54:31;3.58;;;1.20;;
75655;SDS011;64252;51.094;13.714;2023-10-08T09:57:10;6.93;;;1.88;;
75655;SDS011;64252;51.094;13.714;2023-10-08T09:59:36;4.93;;;1.30;;
75655;SDS011;64252;51.094;13.714;2023-10-08T10:02:06;6.38;;;2.10;;
75655;SDS011;64252;51.094;13.714;2023-10-08T10:04:35;7.85;;;1.92;;
75655;SDS011;64252;51.094;13.714;2023-10-08T10:07:08;6.82;;;1.83;;
75655;SDS011;64252;51.094;13.714;2023-10-08T10:09:38;5.30;;;1.50;;
75655;SDS011;64252;51.094;13.714;2023-10-08T10:12:05;7.38;;;1.67;;
75655;SDS011;64252;51.094;13.714;2023-10-08T10:14:41;6.95;;;2.00;;
75655;SDS011;64252;51.094;13.714;2023-10-08T10:17:29;5.80;;;1.70;;
75655;SDS011;64252;51.094;13.714;2023-10-08T10:22:29;6.43;;;1.42;;
75655;SDS011;64252;51.094;13.714;2023-10-08T10:24:56;3.83;;;1.40;;
75655;SDS011;64252;51.094;13.714;2023-10-08T10:27:23;5.90;;;1.38;;
75655;SDS011;64252;51.094;13.714;2023-10-08T10:29:48;5.82;;;1.45;;
75655;SDS011;64252;51.094;13.714;2023-10-08T10:32:15;6.47;;;1.23;;
75655;SDS011;64252;51.094;13.714;2023-10-08T10:34:44;5.88;;;1.30;;
75655;SDS011;64252;51.094;13.714;2023-10-08T10:37:12;5.90;;;1.08;;
75655;SDS011;64252;51.094;13.714;2023-10-08T10:39:57;4.00;;;1.05;;
75655;SDS011;64252;51.094;13.714;2023-10-08T10:42:29;4.75;;;1.33;;
75655;SDS011;64252;51.094;13.714;2023-10-08T10:44:55;7.40;;;1.80;;
75655;SDS011;64252;51.094;13.714;2023-10-08T10:47:22;4.00;;;1.05;;
75655;SDS011;64252;51.094;13.714;2023-10-08T10:49:52;3.63;;;1.17;;
75655;SDS011;64252;51.094;13.714;2023-10-08T10:52:28;4.68;;;1.27;;
75655;SDS011;64252;51.094;13.714;2023-10-08T10:55:04;4.88;;;1.20;;
75655;SDS011;64252;51.094;13.714;2023-10-08T10:57:39;5.32;;;1.45;;
75655;SDS011;64252;51.094;13.714;2023-10-08T11:00:07;4.03;;;1.05;;
75655;SDS011;64252;51.094;13.714;2023-10-08T11:02:52;4.80;;;1.20;;
75655;SDS011;64252;51.094;13.714;2023-10-08T11:05:24;7.40;;;1.33;;
75655;SDS011;64252;51.094;13.714;2023-10-08T11:07:57;7.53;;;1.50;;
75655;SDS011;64252;51.094;13.714;2023-10-08T11:10:33;5.40;;;1.33;;
75655;SDS011;64252;51.094;13.714;2023-10-08T11:13:04;3.67;;;1.00;;
75655;SDS011;64252;51.094;13.714;2023-10-08T11:15:42;3.85;;;1.30;;
75655;SDS011;64252;51.094;13.714;2023-10-08T11:18:14;3.45;;;1.00;;
75655;SDS011;64252;51.094;13.714;2023-10-08T11:20:51;5.00;;;1.30;;
75655;SDS011;64252;51.094;13.714;2023-10-08T11:23:33;5.05;;;1.77;;
75655;SDS011;64252;51.094;13.714;2023-10-08T11:26:03;4.25;;;1.30;;
75655;SDS011;64252;51.094;13.714;2023-10-08T11:31:03;3.15;;;1.30;;
75655;SDS011;64252;51.094;13.714;2023-10-08T11:33:34;6.18;;;1.15;;
75655;SDS011;64252;51.094;13.714;2023-10-08T11:36:05;2.83;;;1.00;;
75655;SDS011;64252;51.094;13.714;2023-10-08T11:38:55;5.00;;;1.10;;
75655;SDS011;64252;51.094;13.714;2023-10-08T11:41:31;3.20;;;1.08;;
75655;SDS011;64252;51.094;13.714;2023-10-08T11:44:07;4.63;;;1.05;;
75655;SDS011;64252;51.094;13.714;2023-10-08T11:46:38;3.05;;;1.05;;
75655;SDS011;64252;51.094;13.714;2023-10-08T11:49:04;5.07;;;1.50;;
75655;SDS011;64252;51.094;13.714;2023-10-08T11:51:34;4.82;;;1.40;;
75655;SDS011;64252;51.094;13.714;2023-10-08T11:54:00;6.50;;;1.50;;
75655;SDS011;64252;51.094;13.714;2023-10-08T11:56:30;5.75;;;1.25;;
75655;SDS011;64252;51.094;13.714;2023-10-08T11:58:57;5.05;;;1.00;;
75655;SDS011;64252;51.094;13.714;2023-10-08T12:01:23;7.45;;;1.08;;
75655;SDS011;64252;51.094;13.714;2023-10-08T12:03:50;3.25;;;1.00;;
75655;SDS011;64252;51.094;13.714;2023-10-08T12:06:16;3.63;;;0.93;;
75655;SDS011;64252;51.094;13.714;2023-10-08T12:08:44;3.33;;;0.82;;
75655;SDS011;64252;51.094;13.714;2023-10-08T12:11:12;3.33;;;0.82;;
75655;SDS011;64252;51.094;13.714;2023-10-08T12:13:41;3.25;;;0.93;;
75655;SDS011;64252;51.094;13.714;2023-10-08T12:16:18;3.40;;;1.00;;
75655;SDS011;64252;51.094;13.714;2023-10-08T12:21:18;4.13;;;0.85;;
75655;SDS011;64252;51.094;13.714;2023-10-08T12:23:45;6.20;;;1.13;;
75655;SDS011;64252;51.094;13.714;2023-10-08T12:26:12;4.57;;;1.08;;
75655;SDS011;64252;51.094;13.714;2023-10-08T12:28:41;5.35;;;1.75;;
75655;SDS011;64252;51.094;13.714;2023-10-08T12:31:11;4.38;;;1.17;;
75655;SDS011;64252;51.094;13.714;2023-10-08T12:33:38;3.47;;;1.02;;
75655;SDS011;64252;51.094;13.714;2023-10-08T12:36:03;4.30;;;1.10;;
75655;SDS011;64252;51.094;13.714;2023-10-08T12:38:39;5.88;;;1.20;;
75655;SDS011;64252;51.094;13.714;2023-10-08T12:41:09;5.30;;;1.50;;
75655;SDS011;64252;51.094;13.714;2023-10-08T12:43:38;7.97;;;1.20;;
75655;SDS011;64252;51.094;13.714;2023-10-08T12:46:07;8.88;;;1.00;;
75655;SDS011;64252;51.094;13.714;2023-10-08T12:48:39;4.97;;;1.23;;
75655;SDS011;64252;51.094;13.714;2023-10-08T12:51:04;5.93;;;1.20;;
75655;SDS011;64252;51.094;13.714;2023-10-08T12:53:31;5.55;;;1.08;;
75655;SDS011;64252;51.094;13.714;2023-10-08T12:56:04;6.72;;;1.17;;
75655;SDS011;64252;51.094;13.714;2023-10-08T12:58:35;3.85;;;1.10;;
75655;SDS011;64252;51.094;13.714;2023-10-08T13:01:09;4.20;;;1.25;;
75655;SDS011;64252;51.094;13.714;2023-10-08T13:03:36;5.10;;;1.23;;
75655;SDS011;64252;51.094;13.714;2023-10-08T13:06:09;4.28;;;1.20;;
75655;SDS011;64252;51.094;13.714;2023-10-08T13:08:47;5.05;;;1.50;;
75655;SDS011;64252;51.094;13.714;2023-10-08T13:11:21;4.65;;;0.80;;
75655;SDS011;64252;51.094;13.714;2023-10-08T13:13:50;4.75;;;0.98;;
75655;SDS011;64252;51.094;13.714;2023-10-08T13:16:18;3.47;;;1.00;;
75655;SDS011;64252;51.094;13.714;2023-10-08T13:18:46;3.45;;;0.80;;
75655;SDS011;64252;51.094;13.714;2023-10-08T13:21:12;5.13;;;2.50;;
75655;SDS011;64252;51.094;13.714;2023-10-08T13:23:38;5.78;;;2.50;;
75655;SDS011;64252;51.094;13.714;2023-10-08T13:26:04;4.35;;;1.40;;
75655;SDS011;64252;51.094;13.714;2023-10-08T13:28:35;2.92;;;1.10;;
75655;SDS011;64252;51.094;13.714;2023-10-08T13:31:02;4.35;;;0.93;;
75655;SDS011;64252;51.094;13.714;2023-10-08T13:33:38;4.05;;;1.10;;
75655;SDS011;64252;51.094;13.714;2023-10-08T13:36:07;3.20;;;1.00;;
75655;SDS011;64252;51.094;13.714;2023-10-08T13:38:37;3.95;;;0.88;;
75655;SDS011;64252;51.094;13.714;2023-10-08T13:41:06;2.95;;;0.70;;
75655;SDS011;64252;51.094;13.714;2023-10-08T13:43:40;6.30;;;1.10;;
75655;SDS011;64252;51.094;13.714;2023-10-08T13:46:16;5.28;;;1.23;;
75655;SDS011;64252;51.094;13.714;2023-10-08T13:48:43;3.35;;;0.85;;
75655;SDS011;64252;51.094;13.714;2023-10-08T13:51:13;6.78;;;1.13;;
75655;SDS011;64252;51.094;13.714;2023-10-08T13:53:40;4.57;;;0.95;;
75655;SDS011;64252;51.094;13.714;2023-10-08T13:56:10;4.68;;;1.17;;
75655;SDS011;64252;51.094;13.714;2023-10-08T13:58:37;3.92;;;1.00;;
75655;SDS011;64252;51.094;13.714;2023-10-08T14:01:11;4.88;;;1.00;;
75655;SDS011;64252;51.094;13.714;2023-10-08T14:03:48;3.72;;;0.90;;
75655;SDS011;64252;51.094;13.714;2023-10-08T14:06:16;5.18;;;1.10;;
75655;SDS011;64252;51.094;13.714;2023-10-08T14:08:42;4.40;;;1.10;;
75655;SDS011;64252;51.094;13.714;2023-10-08T14:11:20;4.35;;;1.00;;
75655;SDS011;64252;51.094;13.714;2023-10-08T14:13:51;3.33;;;1.17;;
75655;SDS011;64252;51.094;13.714;2023-10-08T14:16:17;4.60;;;1.30;;
75655;SDS011;64252;51.094;13.714;2023-10-08T14:18:48;5.03;;;1.15;;
75655;SDS011;64252;51.094;13.714;2023-10-08T14:21:19;2.70;;;0.90;;
75655;SDS011;64252;51.094;13.714;2023-10-08T14:23:49;5.50;;;1.42;;
75655;SDS011;64252;51.094;13.714;2023-10-08T14:26:17;5.00;;;1.27;;
75655;SDS011;64252;51.094;13.714;2023-10-08T14:28:47;3.15;;;1.17;;
75655;SDS011;64252;51.094;13.714;2023-10-08T14:31:18;4.45;;;1.20;;
75655;SDS011;64252;51.094;13.714;2023-10-08T14:33:48;4.88;;;1.20;;
75655;SDS011;64252;51.094;13.714;2023-10-08T14:36:33;6.32;;;1.42;;
75655;SDS011;64252;51.094;13.714;2023-10-08T14:39:17;4.22;;;1.25;;
75655;SDS011;64252;51.094;13.714;2023-10-08T14:42:02;4.18;;;1.20;;
75655;SDS011;64252;51.094;13.714;2023-10-08T14:44:46;4.57;;;1.50;;
75655;SDS011;64252;51.094;13.714;2023-10-08T14:47:12;6.40;;;1.58;;
75655;SDS011;64252;51.094;13.714;2023-10-08T14:49:38;3.17;;;1.20;;
75655;SDS011;64252;51.094;13.714;2023-10-08T14:52:03;8.05;;;2.88;;
75655;SDS011;64252;51.094;13.714;2023-10-08T14:54:30;10.18;;;2.60;;
75655;SDS011;64252;51.094;13.714;2023-10-08T14:56:58;8.45;;;3.30;;
75655;SDS011;64252;51.094;13.714;2023-10-08T14:59:24;8.85;;;3.15;;
75655;SDS011;64252;51.094;13.714;2023-10-08T15:04:20;7.80;;;2.13;;
75655;SDS011;64252;51.094;13.714;2023-10-08T15:06:47;9.13;;;2.47;;
75655;SDS011;64252;51.094;13.714;2023-10-08T15:09:13;5.22;;;1.88;;
75655;SDS011;64252;51.094;13.714;2023-10-08T15:11:47;6.55;;;1.83;;
75655;SDS011;64252;51.094;13.714;2023-10-08T15:14:13;5.35;;;1.63;;
75655;SDS011;64252;51.094;13.714;2023-10-08T15:16:41;5.20;;;1.77;;
75655;SDS011;64252;51.094;13.714;2023-10-08T15:19:06;7.00;;;1.88;;
75655;SDS011;64252;51.094;13.714;2023-10-08T15:21:40;4.65;;;1.73;;